createdAt,value
2022-12-08T00:01:20.391Z,21.23
2022-12-08T00:03:49.025Z,19.17
2022-12-08T00:06:42.773Z,21.27
2022-12-08T00:09:24.806Z,18.92
2022-12-08T00:11:55.494Z,22.60
2022-12-08T00:14:30.371Z,16.88
2022-12-08T00:16:59.005Z,18.67
2022-12-08T00:19:28.084Z,20.58
2022-12-08T00:21:56.191Z,19.48
2022-12-08T00:24:25.877Z,16.83
2022-12-08T00:26:53.585Z,19.17
2022-12-08T00:29:21.642Z,19.65
2022-12-08T00:31:51.574Z,18.35
2022-12-08T00:34:19.559Z,15.25
2022-12-08T00:36:47.834Z,15.80
2022-12-08T00:39:18.047Z,17.23
2022-12-08T00:42:03.595Z,18.13
2022-12-08T00:47:00.207Z,18.25
2022-12-08T00:49:27.873Z,18.17
2022-12-08T00:51:55.783Z,20.02
2022-12-08T00:54:23.947Z,17.50
2022-12-08T00:56:52.088Z,17.98
2022-12-08T00:59:20.230Z,21.85
2022-12-08T01:01:48.737Z,17.13
2022-12-08T01:04:19.553Z,19.25
2022-12-08T01:06:47.979Z,18.45
2022-12-08T01:09:17.184Z,18.70
2022-12-08T01:11:45.552Z,15.95
2022-12-08T01:14:13.724Z,18.05
2022-12-08T01:16:42.385Z,15.90
2022-12-08T01:19:12.011Z,16.73
2022-12-08T01:21:42.210Z,15.73
2022-12-08T01:24:12.963Z,16.98
2022-12-08T01:26:41.264Z,16.27
2022-12-08T01:29:09.050Z,13.77
2022-12-08T01:31:36.898Z,15.90
2022-12-08T01:34:05.062Z,15.18
2022-12-08T01:36:36.900Z,15.27
2022-12-08T01:39:08.311Z,15.80
2022-12-08T01:41:37.653Z,15.63
2022-12-08T01:44:43.769Z,16.85
2022-12-08T01:47:13.121Z,17.33
2022-12-08T01:49:40.872Z,16.60
2022-12-08T01:52:14.942Z,17.13
2022-12-08T01:54:47.338Z,15.77
2022-12-08T01:57:19.454Z,18.02
2022-12-08T01:59:51.149Z,17.52
2022-12-08T02:02:20.425Z,14.55
2022-12-08T02:04:48.565Z,14.73
2022-12-08T02:07:18.504Z,16.30
2022-12-08T02:09:47.195Z,15.73
2022-12-08T02:12:15.192Z,18.00
2022-12-08T02:14:51.910Z,15.27
2022-12-08T02:17:36.513Z,15.85
2022-12-08T02:20:34.269Z,13.90
2022-12-08T02:23:11.643Z,15.70
2022-12-08T02:25:47.827Z,16.98
2022-12-08T02:28:39.052Z,15.27
2022-12-08T02:31:18.452Z,16.67
2022-12-08T02:34:10.804Z,13.05
2022-12-08T02:36:47.992Z,14.68
2022-12-08T02:39:26.685Z,16.58
2022-12-08T02:42:00.674Z,15.98
2022-12-08T02:44:33.977Z,12.75
2022-12-08T02:47:06.871Z,13.50
2022-12-08T02:49:36.911Z,14.07
2022-12-08T02:52:09.497Z,15.88
2022-12-08T02:54:37.860Z,19.60
2022-12-08T02:57:22.672Z,15.23
2022-12-08T03:00:03.494Z,13.57
2022-12-08T03:02:49.820Z,12.63
2022-12-08T03:05:39.895Z,14.23
2022-12-08T03:08:15.799Z,12.95
2022-12-08T03:10:48.338Z,18.08
2022-12-08T03:13:18.294Z,13.57
2022-12-08T03:15:50.712Z,15.30
2022-12-08T03:18:23.921Z,12.80
2022-12-08T03:20:53.078Z,14.68
2022-12-08T03:23:23.167Z,14.65
2022-12-08T03:25:57.336Z,13.27
2022-12-08T03:28:25.717Z,15.32
2022-12-08T03:30:58.855Z,12.95
2022-12-08T03:33:31.415Z,14.23
2022-12-08T03:36:03.038Z,12.05
2022-12-08T03:38:38.831Z,11.90
2022-12-08T03:43:49.646Z,12.55
2022-12-08T03:46:18.218Z,11.77
2022-12-08T03:48:45.953Z,12.68
2022-12-08T03:51:15.658Z,16.15
2022-12-08T03:53:43.904Z,13.50
2022-12-08T03:56:17.720Z,13.45
2022-12-08T03:58:45.649Z,16.13
2022-12-08T04:01:13.631Z,12.43
2022-12-08T04:03:41.413Z,12.65
2022-12-08T04:06:09.384Z,13.82
2022-12-08T04:08:38.521Z,10.98
2022-12-08T04:11:07.247Z,13.77
2022-12-08T04:13:35.097Z,10.13
2022-12-08T04:16:03.300Z,12.48
2022-12-08T04:18:31.236Z,13.57
2022-12-08T04:20:58.947Z,11.07
2022-12-08T04:23:26.796Z,12.38
2022-12-08T04:25:55.813Z,10.20
2022-12-08T04:28:23.572Z,12.95
2022-12-08T04:30:51.420Z,11.50
2022-12-08T04:33:19.087Z,13.48
2022-12-08T04:35:46.791Z,13.00
2022-12-08T04:38:14.935Z,9.52
2022-12-08T04:40:42.708Z,9.68
2022-12-08T04:43:11.781Z,10.65
2022-12-08T04:45:41.110Z,13.70
2022-12-08T04:48:09.788Z,10.25
2022-12-08T04:50:40.847Z,13.52
2022-12-08T04:53:09.177Z,15.55
2022-12-08T04:55:39.423Z,11.98
2022-12-08T04:58:07.107Z,13.55
2022-12-08T05:00:36.208Z,10.63
2022-12-08T05:03:03.995Z,10.95
2022-12-08T05:05:31.716Z,10.07
2022-12-08T05:07:59.450Z,9.15
2022-12-08T05:10:27.350Z,9.02
2022-12-08T05:12:55.229Z,9.60
2022-12-08T05:15:22.954Z,10.80
2022-12-08T05:17:52.032Z,9.30
2022-12-08T05:20:19.906Z,9.73
2022-12-08T05:22:47.644Z,9.82
2022-12-08T05:25:15.911Z,11.48
2022-12-08T05:27:43.900Z,10.80
2022-12-08T05:30:12.100Z,11.50
2022-12-08T05:32:39.916Z,10.57
2022-12-08T05:35:09.797Z,11.85
2022-12-08T05:37:37.663Z,22.85
2022-12-08T05:40:06.537Z,11.98
2022-12-08T05:42:34.543Z,10.88
2022-12-08T05:45:02.300Z,10.93
2022-12-08T05:47:34.535Z,11.45
2022-12-08T05:50:04.063Z,12.85
2022-12-08T05:52:33.640Z,11.90
2022-12-08T05:55:01.478Z,13.98
2022-12-08T05:57:29.263Z,12.90
2022-12-08T05:59:59.387Z,12.35
2022-12-08T06:02:27.458Z,13.13
2022-12-08T06:04:55.221Z,12.80
2022-12-08T06:07:22.932Z,15.55
2022-12-08T06:09:52.278Z,16.00
2022-12-08T06:12:21.165Z,14.55
2022-12-08T06:14:48.823Z,14.38
2022-12-08T06:17:16.505Z,20.35
2022-12-08T06:19:44.182Z,19.90
2022-12-08T06:22:11.909Z,16.02
2022-12-08T06:24:39.692Z,18.10
2022-12-08T06:27:08.705Z,20.58
2022-12-08T06:29:36.449Z,15.82
2022-12-08T06:32:04.155Z,17.90
2022-12-08T06:34:31.998Z,17.38
2022-12-08T06:36:59.664Z,18.02
2022-12-08T06:39:27.535Z,16.50
2022-12-08T06:42:12.932Z,17.92
2022-12-08T06:47:09.613Z,19.17
2022-12-08T06:49:37.505Z,18.42
2022-12-08T06:52:05.722Z,16.55
2022-12-08T06:54:33.440Z,15.82
2022-12-08T06:57:01.183Z,16.90
2022-12-08T06:59:28.871Z,16.75
2022-12-08T07:01:58.551Z,16.73
2022-12-08T07:04:26.788Z,20.63
2022-12-08T07:06:54.514Z,17.50
2022-12-08T07:09:22.267Z,20.60
2022-12-08T07:11:49.945Z,16.55
2022-12-08T07:14:17.696Z,16.90
2022-12-08T07:16:45.413Z,16.83
2022-12-08T07:19:15.022Z,17.13
2022-12-08T07:21:42.746Z,18.38
2022-12-08T07:24:10.427Z,21.10
2022-12-08T07:26:38.482Z,17.02
2022-12-08T07:29:06.683Z,14.93
2022-12-08T07:31:34.364Z,14.88
2022-12-08T07:34:02.044Z,16.00
2022-12-08T07:36:32.438Z,16.08
2022-12-08T07:39:00.410Z,15.85
2022-12-08T07:41:28.364Z,16.13
2022-12-08T07:43:57.220Z,14.52
2022-12-08T07:46:26.779Z,15.18
2022-12-08T07:48:55.590Z,16.95
2022-12-08T07:51:24.779Z,12.98
2022-12-08T07:53:55.140Z,18.45
2022-12-08T07:56:24.075Z,16.77
2022-12-08T07:58:52.029Z,15.20
2022-12-08T08:01:25.837Z,15.20
2022-12-08T08:03:54.954Z,16.60
2022-12-08T08:06:22.694Z,18.00
2022-12-08T08:08:50.466Z,17.17
2022-12-08T08:11:21.550Z,15.70
2022-12-08T08:13:49.883Z,17.48
2022-12-08T08:16:18.813Z,20.25
2022-12-08T08:18:48.685Z,17.42
2022-12-08T08:21:43.643Z,16.75
2022-12-08T08:24:05.093Z,17.90
2022-12-08T08:26:34.126Z,20.98
2022-12-08T08:29:01.825Z,18.63
2022-12-08T08:31:29.614Z,19.98
2022-12-08T08:33:58.034Z,19.05
2022-12-08T08:36:26.574Z,20.42
2022-12-08T08:38:54.240Z,19.17
2022-12-08T08:41:21.950Z,19.52
2022-12-08T08:43:50.956Z,20.10
2022-12-08T08:46:18.699Z,18.77
2022-12-08T08:48:46.393Z,21.77
2022-12-08T08:51:15.680Z,19.60
2022-12-08T08:53:44.124Z,21.55
2022-12-08T08:56:13.070Z,19.00
2022-12-08T08:58:40.836Z,21.02
2022-12-08T09:01:10.107Z,16.23
2022-12-08T09:03:37.870Z,19.50
2022-12-08T09:06:05.791Z,16.55
2022-12-08T09:08:33.739Z,18.90
2022-12-08T09:11:01.487Z,14.43
2022-12-08T09:13:29.571Z,17.85
2022-12-08T09:15:57.349Z,16.45
2022-12-08T09:18:26.822Z,18.15
2022-12-08T09:20:54.885Z,18.13
2022-12-08T09:23:22.541Z,16.63
2022-12-08T09:25:50.244Z,18.42
2022-12-08T09:28:17.921Z,15.55
2022-12-08T09:30:45.631Z,15.00
2022-12-08T09:33:13.348Z,14.80
2022-12-08T09:35:42.393Z,18.23
2022-12-08T09:38:10.103Z,11.40
2022-12-08T09:40:45.162Z,14.82
2022-12-08T09:43:25.221Z,13.00
2022-12-08T09:45:54.048Z,14.00
2022-12-08T09:48:26.385Z,10.40
2022-12-08T09:50:57.957Z,11.18
2022-12-08T09:53:35.337Z,11.75
2022-12-08T09:56:07.811Z,12.45
2022-12-08T09:58:47.530Z,8.10
2022-12-08T10:01:15.854Z,10.38
2022-12-08T10:03:44.118Z,9.15
2022-12-08T10:06:22.371Z,10.05
2022-12-08T10:09:02.047Z,9.23
2022-12-08T10:11:37.551Z,5.22
2022-12-08T10:14:20.025Z,5.38
2022-12-08T10:16:50.421Z,6.22
2022-12-08T10:19:22.662Z,6.57
2022-12-08T10:21:54.034Z,7.47
2022-12-08T10:24:29.967Z,6.05
2022-12-08T10:26:58.432Z,9.68
2022-12-08T10:29:26.233Z,7.53
2022-12-08T10:31:54.062Z,6.75
2022-12-08T10:34:24.352Z,6.85
2022-12-08T10:36:56.160Z,10.98
2022-12-08T10:39:32.269Z,8.32
2022-12-08T10:42:10.824Z,8.77
2022-12-08T10:44:54.965Z,10.93
2022-12-08T10:47:24.679Z,11.40
2022-12-08T10:50:09.505Z,11.20
2022-12-08T10:52:42.082Z,11.27
2022-12-08T10:55:16.889Z,11.35
2022-12-08T10:57:44.904Z,15.13
2022-12-08T11:00:15.416Z,12.48
2022-12-08T11:02:59.614Z,9.18
2022-12-08T11:05:30.691Z,11.88
2022-12-08T11:08:00.218Z,9.75
2022-12-08T11:10:38.258Z,11.55
2022-12-08T11:13:12.528Z,12.50
2022-12-08T11:15:41.436Z,13.20
2022-12-08T11:18:21.358Z,14.63
2022-12-08T11:20:56.616Z,10.45
2022-12-08T11:23:27.755Z,13.88
2022-12-08T11:25:59.772Z,14.57
2022-12-08T11:28:27.472Z,13.35
2022-12-08T11:31:01.537Z,13.55
2022-12-08T11:33:30.206Z,16.02
2022-12-08T11:36:03.372Z,16.02
2022-12-08T11:38:35.282Z,16.65
2022-12-08T11:41:10.808Z,12.93
2022-12-08T11:43:49.314Z,13.75
2022-12-08T11:46:22.990Z,11.40
2022-12-08T11:48:54.635Z,15.02
2022-12-08T11:51:31.501Z,16.33
2022-12-08T11:54:15.062Z,10.65
2022-12-08T11:56:45.789Z,14.20
2022-12-08T11:59:21.268Z,14.05
2022-12-08T12:01:49.008Z,16.98
2022-12-08T12:04:23.726Z,17.52
2022-12-08T12:07:23.074Z,15.73
2022-12-08T12:10:09.259Z,15.23
2022-12-08T12:12:51.994Z,15.45
2022-12-08T12:15:40.632Z,22.25
2022-12-08T12:18:16.921Z,17.40
2022-12-08T12:20:52.534Z,17.42
2022-12-08T12:23:24.148Z,13.82
2022-12-08T12:25:58.942Z,21.33
2022-12-08T12:28:30.773Z,15.15
2022-12-08T12:31:02.026Z,19.67
2022-12-08T12:33:32.038Z,14.73
2022-12-08T12:36:04.313Z,15.65
2022-12-08T12:38:53.910Z,16.55
2022-12-08T12:41:27.206Z,13.75
2022-12-08T12:44:33.348Z,12.68
2022-12-08T12:47:02.816Z,10.18
2022-12-08T12:50:04.086Z,8.00
2022-12-08T12:52:55.836Z,12.10
2022-12-08T12:55:26.465Z,11.73
2022-12-08T12:57:57.494Z,9.35
2022-12-08T13:00:26.787Z,8.38
2022-12-08T13:02:57.674Z,7.93
2022-12-08T13:05:28.194Z,8.20
2022-12-08T13:07:58.738Z,13.82
2022-12-08T13:10:30.186Z,8.57
2022-12-08T13:13:20.148Z,11.30
2022-12-08T13:15:52.666Z,11.38
2022-12-08T13:18:22.914Z,11.85
2022-12-08T13:20:54.005Z,8.00
2022-12-08T13:23:43.980Z,7.10
2022-12-08T13:26:18.560Z,9.95
2022-12-08T13:29:16.010Z,7.95
2022-12-08T13:31:50.428Z,10.30
2022-12-08T13:34:31.253Z,9.55
2022-12-08T13:37:07.726Z,6.60
2022-12-08T13:39:42.964Z,7.68
2022-12-08T13:42:20.687Z,7.63
2022-12-08T13:45:21.503Z,10.27
2022-12-08T13:48:20.323Z,7.90
2022-12-08T13:52:37.056Z,7.68
2022-12-08T13:54:35.298Z,7.90
2022-12-08T13:59:24.759Z,7.68
2022-12-08T14:01:57.216Z,7.97
2022-12-08T14:07:14.939Z,5.35
2022-12-08T14:09:43.742Z,8.35
2022-12-08T14:12:19.774Z,8.23
2022-12-08T14:15:05.430Z,6.53
2022-12-08T14:17:35.272Z,5.20
2022-12-08T14:20:14.300Z,8.90
2022-12-08T14:22:42.694Z,7.75
2022-12-08T14:25:15.762Z,7.40
2022-12-08T14:27:43.754Z,8.35
2022-12-08T14:30:20.438Z,8.25
2022-12-08T14:32:51.638Z,14.27
2022-12-08T14:35:23.905Z,7.57
2022-12-08T14:37:55.784Z,6.70
2022-12-08T14:40:25.578Z,7.55
2022-12-08T14:42:55.307Z,7.63
2022-12-08T14:45:23.116Z,7.45
2022-12-08T14:47:52.243Z,7.57
2022-12-08T14:50:41.921Z,7.50
2022-12-08T14:53:16.584Z,6.45
2022-12-08T14:55:47.521Z,6.75
2022-12-08T14:58:22.035Z,10.38
2022-12-08T15:00:52.170Z,7.90
2022-12-08T15:03:23.595Z,7.50
2022-12-08T15:05:53.000Z,10.70
2022-12-08T15:08:20.869Z,9.65
2022-12-08T15:11:18.670Z,9.23
2022-12-08T15:13:48.206Z,9.63
2022-12-08T15:16:25.826Z,10.70
2022-12-08T15:19:05.916Z,10.98
2022-12-08T15:21:39.005Z,12.68
2022-12-08T15:24:07.111Z,10.30
2022-12-08T15:26:41.552Z,10.68
2022-12-08T15:29:14.807Z,6.63
2022-12-08T15:31:42.504Z,8.40
2022-12-08T15:34:11.631Z,11.93
2022-12-08T15:36:40.033Z,10.93
2022-12-08T15:39:21.372Z,10.35
2022-12-08T15:41:49.070Z,8.23
2022-12-08T15:44:16.718Z,6.43
2022-12-08T15:46:44.588Z,6.43
2022-12-08T15:49:18.285Z,8.60
2022-12-08T15:51:46.260Z,11.20
2022-12-08T15:54:14.389Z,8.07
2022-12-08T15:57:17.419Z,7.93
2022-12-08T15:59:33.883Z,6.68
2022-12-08T16:02:01.711Z,7.57
2022-12-08T16:05:25.146Z,6.95
2022-12-08T16:07:22.994Z,7.80
2022-12-08T16:09:50.937Z,10.88
2022-12-08T16:18:17.605Z,9.00
2022-12-08T16:23:42.881Z,9.48
2022-12-08T16:26:28.599Z,9.43
2022-12-08T16:29:00.902Z,10.13
2022-12-08T16:31:28.846Z,9.48
2022-12-08T16:33:56.627Z,6.50
2022-12-08T16:36:25.690Z,10.02
2022-12-08T16:38:53.426Z,8.80
2022-12-08T16:41:38.919Z,9.57
2022-12-08T16:46:34.759Z,7.30
2022-12-08T16:49:02.437Z,8.40
2022-12-08T16:51:31.834Z,10.18
2022-12-08T16:53:59.553Z,8.95
2022-12-08T16:56:32.632Z,8.00
2022-12-08T16:59:01.452Z,7.90
2022-12-08T17:01:29.271Z,9.13
2022-12-08T17:04:22.943Z,7.15
2022-12-08T17:06:46.406Z,9.93
2022-12-08T17:09:14.387Z,7.63
2022-12-08T17:11:43.627Z,6.63
2022-12-08T17:14:12.532Z,5.53
2022-12-08T17:16:40.474Z,6.07
2022-12-08T17:19:08.412Z,5.50
2022-12-08T17:21:36.153Z,9.15
2022-12-08T17:24:05.686Z,7.20
2022-12-08T17:26:33.573Z,10.80
2022-12-08T17:29:03.270Z,8.65
2022-12-08T17:31:32.955Z,7.88
2022-12-08T17:34:01.378Z,6.13
2022-12-08T17:36:29.234Z,9.32
2022-12-08T17:38:57.351Z,10.90
2022-12-08T17:41:26.423Z,7.57
2022-12-08T17:43:54.116Z,8.02
2022-12-08T17:46:22.892Z,7.70
2022-12-08T17:48:51.083Z,7.90
2022-12-08T17:51:18.812Z,10.77
2022-12-08T17:53:46.499Z,7.07
2022-12-08T17:56:17.577Z,6.97
2022-12-08T17:58:51.292Z,7.35
2022-12-08T18:01:20.781Z,14.68
2022-12-08T18:03:48.559Z,8.55
2022-12-08T18:06:17.486Z,8.88
2022-12-08T18:08:45.256Z,9.18
2022-12-08T18:11:16.319Z,10.07
2022-12-08T18:13:45.992Z,11.60
2022-12-08T18:16:14.602Z,12.15
2022-12-08T18:18:42.518Z,10.13
2022-12-08T18:21:10.543Z,10.13
2022-12-08T18:23:38.831Z,11.98
2022-12-08T18:26:07.236Z,13.48
2022-12-08T18:28:35.527Z,11.82
2022-12-08T18:31:09.717Z,14.65
2022-12-08T18:33:38.047Z,16.33
2022-12-08T18:36:09.196Z,16.35
2022-12-08T18:38:37.208Z,16.90
2022-12-08T18:41:06.722Z,14.70
2022-12-08T18:43:34.543Z,15.88
2022-12-08T18:46:05.003Z,16.63
2022-12-08T18:48:32.686Z,15.57
2022-12-08T18:51:00.356Z,18.15
2022-12-08T18:53:28.439Z,18.98
2022-12-08T18:55:56.138Z,16.73
2022-12-08T18:58:23.842Z,19.35
2022-12-08T19:00:51.745Z,20.77
2022-12-08T19:03:20.793Z,19.55
2022-12-08T19:05:48.555Z,21.45
2022-12-08T19:08:16.295Z,23.00
2022-12-08T19:10:44.034Z,20.42
2022-12-08T19:13:11.898Z,21.98
2022-12-08T19:15:39.697Z,24.48
2022-12-08T19:18:07.425Z,28.75
2022-12-08T19:20:36.480Z,24.70
2022-12-08T19:23:04.570Z,24.23
2022-12-08T19:25:32.296Z,23.75
2022-12-08T19:27:59.995Z,20.58
2022-12-08T19:30:27.682Z,24.42
2022-12-08T19:32:55.417Z,22.40
2022-12-08T19:35:23.177Z,23.38
2022-12-08T19:37:52.279Z,21.33
2022-12-08T19:40:37.792Z,21.27
2022-12-08T19:45:50.435Z,21.40
2022-12-08T19:48:18.312Z,22.65
2022-12-08T19:50:46.083Z,17.67
2022-12-08T19:53:16.914Z,26.92
2022-12-08T19:55:45.192Z,15.85
2022-12-08T19:58:12.956Z,27.10
2022-12-08T20:00:41.779Z,33.13
2022-12-08T20:03:10.109Z,31.10
2022-12-08T20:05:38.258Z,27.27
2022-12-08T20:08:06.594Z,23.67
2022-12-08T20:10:39.225Z,20.10
2022-12-08T20:13:25.121Z,20.70
2022-12-08T20:15:53.591Z,18.20
2022-12-08T20:18:21.666Z,18.95
2022-12-08T20:20:49.911Z,15.52
2022-12-08T20:23:17.725Z,20.20
2022-12-08T20:25:47.757Z,21.10
2022-12-08T20:28:16.068Z,22.13
2022-12-08T20:30:46.793Z,19.90
2022-12-08T20:33:14.880Z,19.55
2022-12-08T20:35:43.058Z,22.85
2022-12-08T20:38:10.990Z,23.35
2022-12-08T20:40:42.484Z,20.85
2022-12-08T20:43:11.786Z,19.10
2022-12-08T20:45:39.986Z,19.35
2022-12-08T20:48:07.898Z,17.67
2022-12-08T20:50:35.852Z,20.27
2022-12-08T20:53:03.641Z,26.60
2022-12-08T20:55:31.513Z,26.27
2022-12-08T20:57:59.398Z,25.10
2022-12-08T21:00:28.802Z,23.60
2022-12-08T21:02:57.290Z,29.67
2022-12-08T21:05:25.467Z,27.70
2022-12-08T21:07:53.681Z,27.83
2022-12-08T21:10:21.519Z,28.42
2022-12-08T21:12:49.440Z,24.17
2022-12-08T21:15:17.338Z,26.02
2022-12-08T21:17:47.720Z,24.63
2022-12-08T21:20:16.087Z,25.95
2022-12-08T21:22:44.341Z,22.10
2022-12-08T21:25:12.272Z,23.55
2022-12-08T21:27:40.604Z,29.02
2022-12-08T21:30:10.598Z,24.33
2022-12-08T21:32:39.631Z,23.92
2022-12-08T21:35:10.063Z,30.00
2022-12-08T21:37:38.104Z,25.90
2022-12-08T21:40:08.014Z,23.38
2022-12-08T21:42:44.498Z,22.02
2022-12-08T21:45:13.934Z,19.90
2022-12-08T21:47:42.401Z,17.42
2022-12-08T21:50:13.002Z,19.45
2022-12-08T21:52:41.461Z,18.90
2022-12-08T21:55:12.195Z,17.67
2022-12-08T21:57:40.283Z,17.02
2022-12-08T22:00:12.655Z,18.85
2022-12-08T22:02:40.676Z,20.65
2022-12-08T22:05:09.336Z,20.20
2022-12-08T22:07:41.819Z,20.90
2022-12-08T22:10:11.671Z,22.65
2022-12-08T22:12:40.332Z,21.92
2022-12-08T22:15:09.853Z,17.33
2022-12-08T22:17:39.342Z,20.02
2022-12-08T22:20:09.266Z,24.17
2022-12-08T22:22:39.241Z,18.77
2022-12-08T22:25:10.971Z,19.00
2022-12-08T22:27:39.397Z,18.70
2022-12-08T22:30:08.782Z,17.52
2022-12-08T22:32:37.141Z,20.88
2022-12-08T22:35:05.728Z,19.65
2022-12-08T22:37:33.695Z,23.20
2022-12-08T22:40:03.169Z,18.92
2022-12-08T22:42:31.293Z,20.17
2022-12-08T22:44:59.144Z,19.13
2022-12-08T22:47:26.873Z,18.92
2022-12-08T22:49:54.643Z,16.60
2022-12-08T22:52:22.504Z,17.10
2022-12-08T22:54:50.629Z,17.40
2022-12-08T22:57:22.796Z,15.43
2022-12-08T22:59:50.622Z,15.95
2022-12-08T23:02:18.486Z,19.75
2022-12-08T23:04:47.208Z,17.88
2022-12-08T23:07:15.275Z,15.13
2022-12-08T23:09:43.472Z,15.77
2022-12-08T23:12:11.257Z,16.20
2022-12-08T23:14:40.557Z,16.35
2022-12-08T23:17:08.326Z,14.98
2022-12-08T23:19:36.864Z,15.93
2022-12-08T23:22:04.708Z,17.40
2022-12-08T23:24:32.535Z,16.45
2022-12-08T23:27:00.398Z,17.17
2022-12-08T23:29:28.317Z,15.02
2022-12-08T23:31:57.469Z,15.30
2022-12-08T23:34:25.347Z,16.73
2022-12-08T23:36:53.056Z,17.85
2022-12-08T23:39:24.132Z,14.75
2022-12-08T23:41:52.313Z,15.45
2022-12-08T23:44:20.230Z,15.13
2022-12-08T23:46:48.103Z,15.70
2022-12-08T23:49:17.640Z,16.58
2022-12-08T23:51:45.564Z,14.07
2022-12-08T23:54:13.472Z,16.40
2022-12-08T23:56:42.742Z,14.73
2022-12-08T23:59:10.599Z,15.73
